sensor_id;sensor_type;location;lat;lon;timestamp;temperature;humidity
2899;DHT22;1459;50.864;6.438;2022-07-21T00:01:25;20.00;99.90
2899;DHT22;1459;50.864;6.438;2022-07-21T00:03:52;20.00;99.90
2899;DHT22;1459;50.864;6.438;2022-07-21T00:06:19;20.00;99.90
2899;DHT22;1459;50.864;6.438;2022-07-21T00:08:48;20.00;99.90
2899;DHT22;1459;50.864;6.438;2022-07-21T00:11:16;19.90;99.90
2899;DHT22;1459;50.864;6.438;2022-07-21T00:13:44;19.90;99.90
2899;DHT22;1459;50.864;6.438;2022-07-21T00:16:11;19.90;99.90
2899;DHT22;1459;50.864;6.438;2022-07-21T00:18:38;19.90;99.90
2899;DHT22;1459;50.864;6.438;2022-07-21T00:21:05;19.90;99.90
2899;DHT22;1459;50.864;6.438;2022-07-21T00:23:32;19.80;99.90
2899;DHT22;1459;50.864;6.438;2022-07-21T00:26:01;19.80;99.90
2899;DHT22;1459;50.864;6.438;2022-07-21T00:28:28;19.80;99.90
2899;DHT22;1459;50.864;6.438;2022-07-21T00:30:55;19.70;99.90
2899;DHT22;1459;50.864;6.438;2022-07-21T00:33:22;19.70;99.90
2899;DHT22;1459;50.864;6.438;2022-07-21T00:35:49;19.70;99.90
2899;DHT22;1459;50.864;6.438;2022-07-21T00:38:16;19.70;99.90
2899;DHT22;1459;50.864;6.438;2022-07-21T00:40:43;19.70;99.90
2899;DHT22;1459;50.864;6.438;2022-07-21T00:43:14;19.70;99.90
2899;DHT22;1459;50.864;6.438;2022-07-21T00:45:44;19.70;99.90
2899;DHT22;1459;50.864;6.438;2022-07-21T00:48:11;19.70;99.90
2899;DHT22;1459;50.864;6.438;2022-07-21T00:50:39;19.70;99.90
2899;DHT22;1459;50.864;6.438;2022-07-21T00:53:06;19.70;99.90
2899;DHT22;1459;50.864;6.438;2022-07-21T00:55:33;19.70;99.90
2899;DHT22;1459;50.864;6.438;2022-07-21T00:58:00;19.70;99.90
2899;DHT22;1459;50.864;6.438;2022-07-21T01:00:30;19.70;99.90
2899;DHT22;1459;50.864;6.438;2022-07-21T01:02:57;19.70;99.90
2899;DHT22;1459;50.864;6.438;2022-07-21T01:05:24;19.80;99.90
2899;DHT22;1459;50.864;6.438;2022-07-21T01:07:53;19.80;99.90
2899;DHT22;1459;50.864;6.438;2022-07-21T01:10:22;19.80;99.90
2899;DHT22;1459;50.864;6.438;2022-07-21T01:12:51;19.80;99.90
2899;DHT22;1459;50.864;6.438;2022-07-21T01:15:19;19.80;99.90
2899;DHT22;1459;50.864;6.438;2022-07-21T01:17:48;19.80;99.90
2899;DHT22;1459;50.864;6.438;2022-07-21T01:20:17;19.80;99.90
2899;DHT22;1459;50.864;6.438;2022-07-21T01:22:48;19.70;99.90
2899;DHT22;1459;50.864;6.438;2022-07-21T01:25:17;19.70;99.90
2899;DHT22;1459;50.864;6.438;2022-07-21T01:27:44;19.70;99.90
2899;DHT22;1459;50.864;6.438;2022-07-21T01:30:12;19.60;99.90
2899;DHT22;1459;50.864;6.438;2022-07-21T01:32:40;19.60;99.90
2899;DHT22;1459;50.864;6.438;2022-07-21T01:35:10;19.60;99.90
2899;DHT22;1459;50.864;6.438;2022-07-21T01:37:38;19.50;99.90
2899;DHT22;1459;50.864;6.438;2022-07-21T01:40:08;19.40;99.90
2899;DHT22;1459;50.864;6.438;2022-07-21T01:42:53;19.30;99.90
2899;DHT22;1459;50.864;6.438;2022-07-21T01:45:21;19.30;99.90
2899;DHT22;1459;50.864;6.438;2022-07-21T01:47:49;19.20;99.90
2899;DHT22;1459;50.864;6.438;2022-07-21T01:50:16;19.20;99.90
2899;DHT22;1459;50.864;6.438;2022-07-21T01:52:44;19.20;99.90
2899;DHT22;1459;50.864;6.438;2022-07-21T01:55:13;19.20;99.90
2899;DHT22;1459;50.864;6.438;2022-07-21T01:57:40;19.20;99.90
2899;DHT22;1459;50.864;6.438;2022-07-21T02:00:08;19.30;99.90
2899;DHT22;1459;50.864;6.438;2022-07-21T02:02:37;19.30;99.90
2899;DHT22;1459;50.864;6.438;2022-07-21T02:05:05;19.40;99.90
2899;DHT22;1459;50.864;6.438;2022-07-21T02:07:32;19.40;99.90
2899;DHT22;1459;50.864;6.438;2022-07-21T02:10:02;19.40;99.90
2899;DHT22;1459;50.864;6.438;2022-07-21T02:12:30;19.40;99.90
2899;DHT22;1459;50.864;6.438;2022-07-21T02:14:57;19.40;99.90
2899;DHT22;1459;50.864;6.438;2022-07-21T02:17:27;19.40;99.90
2899;DHT22;1459;50.864;6.438;2022-07-21T02:19:54;19.40;99.90
2899;DHT22;1459;50.864;6.438;2022-07-21T02:22:21;19.50;99.90
2899;DHT22;1459;50.864;6.438;2022-07-21T02:24:48;19.50;99.90
2899;DHT22;1459;50.864;6.438;2022-07-21T02:27:15;19.50;99.90
2899;DHT22;1459;50.864;6.438;2022-07-21T02:29:43;19.50;99.90
2899;DHT22;1459;50.864;6.438;2022-07-21T02:32:10;19.50;99.90
2899;DHT22;1459;50.864;6.438;2022-07-21T02:34:37;19.50;99.90
2899;DHT22;1459;50.864;6.438;2022-07-21T02:37:04;19.50;99.90
2899;DHT22;1459;50.864;6.438;2022-07-21T02:39:31;19.50;99.90
2899;DHT22;1459;50.864;6.438;2022-07-21T02:41:58;19.50;99.90
2899;DHT22;1459;50.864;6.438;2022-07-21T02:44:25;19.50;99.90
2899;DHT22;1459;50.864;6.438;2022-07-21T02:46:54;19.50;99.90
2899;DHT22;1459;50.864;6.438;2022-07-21T02:49:21;19.50;99.90
2899;DHT22;1459;50.864;6.438;2022-07-21T02:51:48;19.50;99.90
2899;DHT22;1459;50.864;6.438;2022-07-21T02:54:15;19.40;99.90
2899;DHT22;1459;50.864;6.438;2022-07-21T02:56:42;19.40;99.90
2899;DHT22;1459;50.864;6.438;2022-07-21T02:59:09;19.40;99.90
2899;DHT22;1459;50.864;6.438;2022-07-21T03:01:36;19.40;99.90
2899;DHT22;1459;50.864;6.438;2022-07-21T03:04:04;19.40;99.90
2899;DHT22;1459;50.864;6.438;2022-07-21T03:06:32;19.40;99.90
2899;DHT22;1459;50.864;6.438;2022-07-21T03:08:58;19.40;99.90
2899;DHT22;1459;50.864;6.438;2022-07-21T03:11:25;19.50;99.90
2899;DHT22;1459;50.864;6.438;2022-07-21T03:13:52;19.50;99.90
2899;DHT22;1459;50.864;6.438;2022-07-21T03:16:20;19.50;99.90
2899;DHT22;1459;50.864;6.438;2022-07-21T03:18:50;19.50;99.90
2899;DHT22;1459;50.864;6.438;2022-07-21T03:21:19;19.50;99.90
2899;DHT22;1459;50.864;6.438;2022-07-21T03:23:49;19.50;99.90
2899;DHT22;1459;50.864;6.438;2022-07-21T03:26:16;19.50;99.90
2899;DHT22;1459;50.864;6.438;2022-07-21T03:28:43;19.50;99.90
2899;DHT22;1459;50.864;6.438;2022-07-21T03:31:11;19.50;99.90
2899;DHT22;1459;50.864;6.438;2022-07-21T03:33:38;19.50;99.90
2899;DHT22;1459;50.864;6.438;2022-07-21T03:36:05;19.50;99.90
2899;DHT22;1459;50.864;6.438;2022-07-21T03:38:35;19.50;99.90
2899;DHT22;1459;50.864;6.438;2022-07-21T03:41:02;19.60;99.90
2899;DHT22;1459;50.864;6.438;2022-07-21T03:43:29;19.60;99.90
2899;DHT22;1459;50.864;6.438;2022-07-21T03:45:56;19.60;99.90
2899;DHT22;1459;50.864;6.438;2022-07-21T03:48:24;19.60;99.90
2899;DHT22;1459;50.864;6.438;2022-07-21T03:50:51;19.70;99.90
2899;DHT22;1459;50.864;6.438;2022-07-21T03:53:23;19.70;99.90
2899;DHT22;1459;50.864;6.438;2022-07-21T03:55:51;19.70;99.90
2899;DHT22;1459;50.864;6.438;2022-07-21T03:58:19;19.70;99.90
2899;DHT22;1459;50.864;6.438;2022-07-21T04:00:46;19.70;99.90
2899;DHT22;1459;50.864;6.438;2022-07-21T04:03:13;19.70;99.90
2899;DHT22;1459;50.864;6.438;2022-07-21T04:05:42;19.80;99.90
2899;DHT22;1459;50.864;6.438;2022-07-21T04:08:10;19.70;99.90
2899;DHT22;1459;50.864;6.438;2022-07-21T04:10:40;19.70;99.90
2899;DHT22;1459;50.864;6.438;2022-07-21T04:13:11;19.70;99.90
2899;DHT22;1459;50.864;6.438;2022-07-21T04:15:38;19.70;99.90
2899;DHT22;1459;50.864;6.438;2022-07-21T04:18:06;19.80;99.90
2899;DHT22;1459;50.864;6.438;2022-07-21T04:20:36;19.80;99.90
2899;DHT22;1459;50.864;6.438;2022-07-21T04:23:03;19.80;99.90
2899;DHT22;1459;50.864;6.438;2022-07-21T04:25:30;19.90;99.90
2899;DHT22;1459;50.864;6.438;2022-07-21T04:27:58;19.90;99.90
2899;DHT22;1459;50.864;6.438;2022-07-21T04:30:27;19.90;99.90
2899;DHT22;1459;50.864;6.438;2022-07-21T04:32:54;19.90;99.90
2899;DHT22;1459;50.864;6.438;2022-07-21T04:35:22;20.00;99.90
2899;DHT22;1459;50.864;6.438;2022-07-21T04:37:49;20.00;99.90
2899;DHT22;1459;50.864;6.438;2022-07-21T04:40:17;20.00;99.90
2899;DHT22;1459;50.864;6.438;2022-07-21T04:42:45;20.10;99.90
2899;DHT22;1459;50.864;6.438;2022-07-21T04:45:14;20.10;99.90
2899;DHT22;1459;50.864;6.438;2022-07-21T04:47:47;20.10;99.90
2899;DHT22;1459;50.864;6.438;2022-07-21T04:50:15;20.20;99.90
2899;DHT22;1459;50.864;6.438;2022-07-21T04:52:42;20.20;99.90
2899;DHT22;1459;50.864;6.438;2022-07-21T04:55:10;20.30;99.90
2899;DHT22;1459;50.864;6.438;2022-07-21T04:57:37;20.30;99.90
2899;DHT22;1459;50.864;6.438;2022-07-21T05:00:07;20.30;99.90
2899;DHT22;1459;50.864;6.438;2022-07-21T05:02:34;20.30;99.90
2899;DHT22;1459;50.864;6.438;2022-07-21T05:05:04;20.40;99.90
2899;DHT22;1459;50.864;6.438;2022-07-21T05:07:34;20.40;99.90
2899;DHT22;1459;50.864;6.438;2022-07-21T05:10:04;20.50;99.90
2899;DHT22;1459;50.864;6.438;2022-07-21T05:12:31;20.50;99.90
2899;DHT22;1459;50.864;6.438;2022-07-21T05:14:58;20.60;99.90
2899;DHT22;1459;50.864;6.438;2022-07-21T05:17:25;20.60;99.90
2899;DHT22;1459;50.864;6.438;2022-07-21T05:19:52;20.60;99.90
2899;DHT22;1459;50.864;6.438;2022-07-21T05:22:21;20.60;99.90
2899;DHT22;1459;50.864;6.438;2022-07-21T05:24:51;20.60;99.90
2899;DHT22;1459;50.864;6.438;2022-07-21T05:27:20;20.60;99.90
2899;DHT22;1459;50.864;6.438;2022-07-21T05:29:47;20.60;99.90
2899;DHT22;1459;50.864;6.438;2022-07-21T05:32:14;20.60;99.90
2899;DHT22;1459;50.864;6.438;2022-07-21T05:34:41;20.60;99.90
2899;DHT22;1459;50.864;6.438;2022-07-21T05:37:11;20.60;99.90
2899;DHT22;1459;50.864;6.438;2022-07-21T05:39:39;20.60;99.90
2899;DHT22;1459;50.864;6.438;2022-07-21T05:42:06;20.60;99.90
2899;DHT22;1459;50.864;6.438;2022-07-21T05:44:33;20.60;99.90
2899;DHT22;1459;50.864;6.438;2022-07-21T05:47:00;20.70;99.90
2899;DHT22;1459;50.864;6.438;2022-07-21T05:49:27;20.70;99.90
2899;DHT22;1459;50.864;6.438;2022-07-21T05:51:55;20.70;99.90
2899;DHT22;1459;50.864;6.438;2022-07-21T05:54:22;20.80;99.90
2899;DHT22;1459;50.864;6.438;2022-07-21T05:56:50;21.00;99.90
2899;DHT22;1459;50.864;6.438;2022-07-21T05:59:17;21.10;99.90
2899;DHT22;1459;50.864;6.438;2022-07-21T06:01:44;21.30;99.90
2899;DHT22;1459;50.864;6.438;2022-07-21T06:04:11;21.40;99.90
2899;DHT22;1459;50.864;6.438;2022-07-21T06:06:38;21.60;99.90
2899;DHT22;1459;50.864;6.438;2022-07-21T06:09:05;21.60;99.90
2899;DHT22;1459;50.864;6.438;2022-07-21T06:11:32;21.70;99.90
2899;DHT22;1459;50.864;6.438;2022-07-21T06:14:01;21.70;99.90
2899;DHT22;1459;50.864;6.438;2022-07-21T06:16:28;21.70;99.90
2899;DHT22;1459;50.864;6.438;2022-07-21T06:18:55;21.70;99.90
2899;DHT22;1459;50.864;6.438;2022-07-21T06:21:22;21.70;99.90
2899;DHT22;1459;50.864;6.438;2022-07-21T06:23:49;21.80;99.90
2899;DHT22;1459;50.864;6.438;2022-07-21T06:26:16;21.80;99.90
2899;DHT22;1459;50.864;6.438;2022-07-21T06:28:43;21.90;99.90
2899;DHT22;1459;50.864;6.438;2022-07-21T06:31:11;22.00;99.90
2899;DHT22;1459;50.864;6.438;2022-07-21T06:33:38;22.00;99.90
2899;DHT22;1459;50.864;6.438;2022-07-21T06:36:06;22.10;99.90
2899;DHT22;1459;50.864;6.438;2022-07-21T06:38:33;22.20;99.90
2899;DHT22;1459;50.864;6.438;2022-07-21T06:41:01;22.40;99.90
2899;DHT22;1459;50.864;6.438;2022-07-21T06:43:28;22.60;99.90
2899;DHT22;1459;50.864;6.438;2022-07-21T06:45:55;22.70;99.90
2899;DHT22;1459;50.864;6.438;2022-07-21T06:48:24;22.80;99.90
2899;DHT22;1459;50.864;6.438;2022-07-21T06:50:51;22.70;99.90
2899;DHT22;1459;50.864;6.438;2022-07-21T06:53:18;22.70;99.90
2899;DHT22;1459;50.864;6.438;2022-07-21T06:55:45;22.60;99.90
2899;DHT22;1459;50.864;6.438;2022-07-21T06:58:15;22.60;99.90
2899;DHT22;1459;50.864;6.438;2022-07-21T07:00:43;22.50;99.90
2899;DHT22;1459;50.864;6.438;2022-07-21T07:03:10;22.60;99.90
2899;DHT22;1459;50.864;6.438;2022-07-21T07:05:39;22.60;99.90
2899;DHT22;1459;50.864;6.438;2022-07-21T07:08:06;22.80;99.90
2899;DHT22;1459;50.864;6.438;2022-07-21T07:10:33;22.90;99.90
2899;DHT22;1459;50.864;6.438;2022-07-21T07:13:00;22.90;99.90
2899;DHT22;1459;50.864;6.438;2022-07-21T07:15:28;22.80;99.90
2899;DHT22;1459;50.864;6.438;2022-07-21T07:17:55;22.80;99.90
2899;DHT22;1459;50.864;6.438;2022-07-21T07:20:24;22.80;99.90
2899;DHT22;1459;50.864;6.438;2022-07-21T07:22:52;23.00;99.90
2899;DHT22;1459;50.864;6.438;2022-07-21T07:25:19;23.20;99.90
2899;DHT22;1459;50.864;6.438;2022-07-21T07:27:48;23.30;99.90
2899;DHT22;1459;50.864;6.438;2022-07-21T07:30:16;23.50;99.90
2899;DHT22;1459;50.864;6.438;2022-07-21T07:32:47;23.60;99.90
2899;DHT22;1459;50.864;6.438;2022-07-21T07:35:19;23.70;99.90
2899;DHT22;1459;50.864;6.438;2022-07-21T07:37:51;23.70;99.90
2899;DHT22;1459;50.864;6.438;2022-07-21T07:40:20;23.70;99.90
2899;DHT22;1459;50.864;6.438;2022-07-21T07:42:48;23.70;99.90
2899;DHT22;1459;50.864;6.438;2022-07-21T07:45:16;23.60;99.90
2899;DHT22;1459;50.864;6.438;2022-07-21T07:47:43;23.30;99.90
2899;DHT22;1459;50.864;6.438;2022-07-21T07:50:12;23.30;99.90
2899;DHT22;1459;50.864;6.438;2022-07-21T07:52:41;23.50;99.90
2899;DHT22;1459;50.864;6.438;2022-07-21T07:55:10;23.60;99.90
2899;DHT22;1459;50.864;6.438;2022-07-21T07:57:38;23.70;99.90
2899;DHT22;1459;50.864;6.438;2022-07-21T08:00:08;23.90;99.90
2899;DHT22;1459;50.864;6.438;2022-07-21T08:02:36;24.10;99.90
2899;DHT22;1459;50.864;6.438;2022-07-21T08:05:04;24.10;99.90
2899;DHT22;1459;50.864;6.438;2022-07-21T08:07:31;24.20;99.90
2899;DHT22;1459;50.864;6.438;2022-07-21T08:09:58;24.10;99.90
2899;DHT22;1459;50.864;6.438;2022-07-21T08:12:26;24.10;99.90
2899;DHT22;1459;50.864;6.438;2022-07-21T08:14:53;23.90;99.90
2899;DHT22;1459;50.864;6.438;2022-07-21T08:17:23;23.90;99.90
2899;DHT22;1459;50.864;6.438;2022-07-21T08:19:50;23.90;99.90
2899;DHT22;1459;50.864;6.438;2022-07-21T08:22:17;24.00;99.90
2899;DHT22;1459;50.864;6.438;2022-07-21T08:24:44;24.00;99.90
2899;DHT22;1459;50.864;6.438;2022-07-21T08:27:11;23.90;99.90
2899;DHT22;1459;50.864;6.438;2022-07-21T08:29:39;23.90;99.90
2899;DHT22;1459;50.864;6.438;2022-07-21T08:32:06;23.90;99.90
2899;DHT22;1459;50.864;6.438;2022-07-21T08:34:33;24.00;99.90
2899;DHT22;1459;50.864;6.438;2022-07-21T08:37:00;24.00;99.90
2899;DHT22;1459;50.864;6.438;2022-07-21T08:39:27;24.10;99.90
2899;DHT22;1459;50.864;6.438;2022-07-21T08:41:55;24.00;99.90
2899;DHT22;1459;50.864;6.438;2022-07-21T08:44:22;24.10;99.90
2899;DHT22;1459;50.864;6.438;2022-07-21T08:46:51;24.10;99.90
2899;DHT22;1459;50.864;6.438;2022-07-21T08:49:20;24.10;99.90
2899;DHT22;1459;50.864;6.438;2022-07-21T08:51:48;24.20;99.90
2899;DHT22;1459;50.864;6.438;2022-07-21T08:54:16;24.40;99.90
2899;DHT22;1459;50.864;6.438;2022-07-21T08:56:44;24.50;99.90
2899;DHT22;1459;50.864;6.438;2022-07-21T08:59:12;24.60;99.90
2899;DHT22;1459;50.864;6.438;2022-07-21T09:01:39;24.60;99.90
2899;DHT22;1459;50.864;6.438;2022-07-21T09:04:25;24.50;99.90
2899;DHT22;1459;50.864;6.438;2022-07-21T09:06:55;24.50;99.90
2899;DHT22;1459;50.864;6.438;2022-07-21T09:09:23;24.40;99.90
2899;DHT22;1459;50.864;6.438;2022-07-21T09:11:50;24.20;99.90
2899;DHT22;1459;50.864;6.438;2022-07-21T09:14:20;24.20;99.90
2899;DHT22;1459;50.864;6.438;2022-07-21T09:16:49;24.20;99.90
2899;DHT22;1459;50.864;6.438;2022-07-21T09:19:20;24.40;99.90
2899;DHT22;1459;50.864;6.438;2022-07-21T09:21:52;24.50;99.90
2899;DHT22;1459;50.864;6.438;2022-07-21T09:24:22;24.70;99.90
2899;DHT22;1459;50.864;6.438;2022-07-21T09:27:03;24.80;99.90
2899;DHT22;1459;50.864;6.438;2022-07-21T09:29:39;24.80;99.90
2899;DHT22;1459;50.864;6.438;2022-07-21T09:32:15;24.60;99.90
2899;DHT22;1459;50.864;6.438;2022-07-21T09:34:43;24.60;99.90
2899;DHT22;1459;50.864;6.438;2022-07-21T09:37:11;24.50;99.90
2899;DHT22;1459;50.864;6.438;2022-07-21T09:39:43;24.40;99.90
2899;DHT22;1459;50.864;6.438;2022-07-21T09:42:20;24.30;99.90
2899;DHT22;1459;50.864;6.438;2022-07-21T09:44:50;24.20;99.90
2899;DHT22;1459;50.864;6.438;2022-07-21T09:47:19;24.10;99.90
2899;DHT22;1459;50.864;6.438;2022-07-21T09:49:47;24.00;99.90
2899;DHT22;1459;50.864;6.438;2022-07-21T09:52:32;23.90;99.90
2899;DHT22;1459;50.864;6.438;2022-07-21T09:55:00;23.80;99.90
2899;DHT22;1459;50.864;6.438;2022-07-21T09:57:28;23.70;99.90
2899;DHT22;1459;50.864;6.438;2022-07-21T09:59:56;23.50;99.90
2899;DHT22;1459;50.864;6.438;2022-07-21T10:02:27;23.30;99.90
2899;DHT22;1459;50.864;6.438;2022-07-21T10:04:56;23.20;99.90
2899;DHT22;1459;50.864;6.438;2022-07-21T10:07:24;23.10;99.90
2899;DHT22;1459;50.864;6.438;2022-07-21T10:09:53;23.00;99.90
2899;DHT22;1459;50.864;6.438;2022-07-21T10:12:21;22.70;99.90
2899;DHT22;1459;50.864;6.438;2022-07-21T10:14:49;22.40;99.90
2899;DHT22;1459;50.864;6.438;2022-07-21T10:17:18;22.30;99.90
2899;DHT22;1459;50.864;6.438;2022-07-21T10:19:52;22.20;99.90
2899;DHT22;1459;50.864;6.438;2022-07-21T10:22:29;22.00;99.90
2899;DHT22;1459;50.864;6.438;2022-07-21T10:24:59;22.00;99.90
2899;DHT22;1459;50.864;6.438;2022-07-21T10:27:27;22.10;99.90
2899;DHT22;1459;50.864;6.438;2022-07-21T10:29:57;22.00;99.90
2899;DHT22;1459;50.864;6.438;2022-07-21T10:32:28;21.70;99.90
2899;DHT22;1459;50.864;6.438;2022-07-21T10:34:56;21.50;99.90
2899;DHT22;1459;50.864;6.438;2022-07-21T10:37:44;21.30;99.90
2899;DHT22;1459;50.864;6.438;2022-07-21T10:40:36;21.10;99.90
2899;DHT22;1459;50.864;6.438;2022-07-21T10:43:38;21.00;99.90
2899;DHT22;1459;50.864;6.438;2022-07-21T10:46:36;20.90;99.90
2899;DHT22;1459;50.864;6.438;2022-07-21T10:49:07;20.70;99.90
2899;DHT22;1459;50.864;6.438;2022-07-21T10:51:38;20.60;99.90
2899;DHT22;1459;50.864;6.438;2022-07-21T10:54:24;20.50;99.90
2899;DHT22;1459;50.864;6.438;2022-07-21T10:57:27;20.30;99.90
2899;DHT22;1459;50.864;6.438;2022-07-21T11:00:20;20.10;99.90
2899;DHT22;1459;50.864;6.438;2022-07-21T11:02:49;20.00;99.90
2899;DHT22;1459;50.864;6.438;2022-07-21T11:05:17;19.70;99.90
2899;DHT22;1459;50.864;6.438;2022-07-21T11:08:12;19.70;99.90
2899;DHT22;1459;50.864;6.438;2022-07-21T11:10:41;19.60;99.90
2899;DHT22;1459;50.864;6.438;2022-07-21T11:13:11;19.50;99.90
2899;DHT22;1459;50.864;6.438;2022-07-21T11:15:46;19.50;99.90
2899;DHT22;1459;50.864;6.438;2022-07-21T11:18:16;19.50;99.90
2899;DHT22;1459;50.864;6.438;2022-07-21T11:20:43;19.50;99.90
2899;DHT22;1459;50.864;6.438;2022-07-21T11:23:10;19.40;99.90
2899;DHT22;1459;50.864;6.438;2022-07-21T11:25:37;19.30;99.90
2899;DHT22;1459;50.864;6.438;2022-07-21T11:28:17;19.30;99.90
2899;DHT22;1459;50.864;6.438;2022-07-21T11:30:44;19.30;99.90
2899;DHT22;1459;50.864;6.438;2022-07-21T11:33:21;19.30;99.90
2899;DHT22;1459;50.864;6.438;2022-07-21T11:35:49;19.30;99.90
2899;DHT22;1459;50.864;6.438;2022-07-21T11:38:16;19.20;99.90
2899;DHT22;1459;50.864;6.438;2022-07-21T11:40:43;19.30;99.90
2899;DHT22;1459;50.864;6.438;2022-07-21T11:43:10;19.30;99.90
2899;DHT22;1459;50.864;6.438;2022-07-21T11:45:38;19.30;99.90
2899;DHT22;1459;50.864;6.438;2022-07-21T11:48:05;19.30;99.90
2899;DHT22;1459;50.864;6.438;2022-07-21T11:50:32;19.30;99.90
2899;DHT22;1459;50.864;6.438;2022-07-21T11:53:00;19.30;99.90
2899;DHT22;1459;50.864;6.438;2022-07-21T11:55:28;19.30;99.90
2899;DHT22;1459;50.864;6.438;2022-07-21T11:57:56;19.30;99.90
2899;DHT22;1459;50.864;6.438;2022-07-21T12:00:24;19.30;99.90
2899;DHT22;1459;50.864;6.438;2022-07-21T12:03:04;19.40;99.90
2899;DHT22;1459;50.864;6.438;2022-07-21T12:05:31;19.30;99.90
2899;DHT22;1459;50.864;6.438;2022-07-21T12:07:58;19.30;99.90
2899;DHT22;1459;50.864;6.438;2022-07-21T12:10:27;19.20;99.90
2899;DHT22;1459;50.864;6.438;2022-07-21T12:12:59;19.20;99.90
2899;DHT22;1459;50.864;6.438;2022-07-21T12:15:28;19.30;99.90
2899;DHT22;1459;50.864;6.438;2022-07-21T12:18:00;19.20;99.90
2899;DHT22;1459;50.864;6.438;2022-07-21T12:20:29;19.20;99.90
2899;DHT22;1459;50.864;6.438;2022-07-21T12:22:58;19.20;99.90
2899;DHT22;1459;50.864;6.438;2022-07-21T12:25:32;19.20;99.90
2899;DHT22;1459;50.864;6.438;2022-07-21T12:28:00;19.30;99.90
2899;DHT22;1459;50.864;6.438;2022-07-21T12:30:34;19.30;99.90
2899;DHT22;1459;50.864;6.438;2022-07-21T12:33:06;19.40;99.90
2899;DHT22;1459;50.864;6.438;2022-07-21T12:35:34;19.40;99.90
2899;DHT22;1459;50.864;6.438;2022-07-21T12:38:04;19.40;99.90
2899;DHT22;1459;50.864;6.438;2022-07-21T12:40:33;19.50;99.90
2899;DHT22;1459;50.864;6.438;2022-07-21T12:43:05;19.50;99.90
2899;DHT22;1459;50.864;6.438;2022-07-21T12:45:47;19.50;99.90
2899;DHT22;1459;50.864;6.438;2022-07-21T12:48:17;19.50;99.90
2899;DHT22;1459;50.864;6.438;2022-07-21T12:51:01;19.60;99.90
2899;DHT22;1459;50.864;6.438;2022-07-21T12:53:29;19.50;99.90
2899;DHT22;1459;50.864;6.438;2022-07-21T12:55:56;19.50;99.90
2899;DHT22;1459;50.864;6.438;2022-07-21T12:58:23;19.40;99.90
2899;DHT22;1459;50.864;6.438;2022-07-21T13:00:50;19.30;99.90
2899;DHT22;1459;50.864;6.438;2022-07-21T13:03:19;19.30;99.90
2899;DHT22;1459;50.864;6.438;2022-07-21T13:05:46;19.10;99.90
2899;DHT22;1459;50.864;6.438;2022-07-21T13:08:13;19.10;99.90
2899;DHT22;1459;50.864;6.438;2022-07-21T13:10:40;19.00;99.90
2899;DHT22;1459;50.864;6.438;2022-07-21T13:13:07;18.90;99.90
2899;DHT22;1459;50.864;6.438;2022-07-21T13:15:34;18.80;99.90
2899;DHT22;1459;50.864;6.438;2022-07-21T13:18:01;18.70;99.90
2899;DHT22;1459;50.864;6.438;2022-07-21T13:20:30;18.70;99.90
2899;DHT22;1459;50.864;6.438;2022-07-21T13:22:56;18.60;99.90
2899;DHT22;1459;50.864;6.438;2022-07-21T13:25:24;18.70;99.90
2899;DHT22;1459;50.864;6.438;2022-07-21T13:27:51;18.60;99.90
2899;DHT22;1459;50.864;6.438;2022-07-21T13:30:19;18.70;99.90
2899;DHT22;1459;50.864;6.438;2022-07-21T13:32:46;18.80;99.90
2899;DHT22;1459;50.864;6.438;2022-07-21T13:35:13;18.80;99.90
2899;DHT22;1459;50.864;6.438;2022-07-21T13:37:42;18.80;99.90
2899;DHT22;1459;50.864;6.438;2022-07-21T13:40:09;18.80;99.90
2899;DHT22;1459;50.864;6.438;2022-07-21T13:42:37;18.80;99.90
2899;DHT22;1459;50.864;6.438;2022-07-21T13:45:04;18.90;99.90
2899;DHT22;1459;50.864;6.438;2022-07-21T13:47:33;19.00;99.90
2899;DHT22;1459;50.864;6.438;2022-07-21T13:50:00;19.10;99.90
2899;DHT22;1459;50.864;6.438;2022-07-21T13:52:27;19.20;99.90
2899;DHT22;1459;50.864;6.438;2022-07-21T13:54:55;19.30;99.90
2899;DHT22;1459;50.864;6.438;2022-07-21T13:57:22;19.30;99.90
2899;DHT22;1459;50.864;6.438;2022-07-21T13:59:49;19.50;99.90
2899;DHT22;1459;50.864;6.438;2022-07-21T14:02:16;19.50;99.90
2899;DHT22;1459;50.864;6.438;2022-07-21T14:04:44;19.60;99.90
2899;DHT22;1459;50.864;6.438;2022-07-21T14:07:12;19.70;99.90
2899;DHT22;1459;50.864;6.438;2022-07-21T14:09:39;19.80;99.90
2899;DHT22;1459;50.864;6.438;2022-07-21T14:12:08;19.80;99.90
2899;DHT22;1459;50.864;6.438;2022-07-21T14:14:36;19.80;99.90
2899;DHT22;1459;50.864;6.438;2022-07-21T14:17:03;19.90;99.90
2899;DHT22;1459;50.864;6.438;2022-07-21T14:19:30;19.90;99.90
2899;DHT22;1459;50.864;6.438;2022-07-21T14:21:58;20.00;99.90
2899;DHT22;1459;50.864;6.438;2022-07-21T14:24:25;20.00;99.90
2899;DHT22;1459;50.864;6.438;2022-07-21T14:27:10;20.10;99.90
2899;DHT22;1459;50.864;6.438;2022-07-21T14:29:37;20.00;99.90
2899;DHT22;1459;50.864;6.438;2022-07-21T14:32:05;19.90;99.90
2899;DHT22;1459;50.864;6.438;2022-07-21T14:34:32;19.80;99.90
2899;DHT22;1459;50.864;6.438;2022-07-21T14:37:00;19.60;99.90
2899;DHT22;1459;50.864;6.438;2022-07-21T14:39:28;19.60;99.90
2899;DHT22;1459;50.864;6.438;2022-07-21T14:41:55;19.70;99.90
2899;DHT22;1459;50.864;6.438;2022-07-21T14:44:23;19.80;99.90
2899;DHT22;1459;50.864;6.438;2022-07-21T14:46:50;19.90;99.90
2899;DHT22;1459;50.864;6.438;2022-07-21T14:49:17;19.80;99.90
2899;DHT22;1459;50.864;6.438;2022-07-21T14:51:44;19.80;99.90
2899;DHT22;1459;50.864;6.438;2022-07-21T14:54:12;19.80;99.90
2899;DHT22;1459;50.864;6.438;2022-07-21T14:56:43;19.90;99.90
2899;DHT22;1459;50.864;6.438;2022-07-21T14:59:11;20.00;99.90
2899;DHT22;1459;50.864;6.438;2022-07-21T15:01:39;20.20;99.90
2899;DHT22;1459;50.864;6.438;2022-07-21T15:04:06;20.20;99.90
2899;DHT22;1459;50.864;6.438;2022-07-21T15:06:34;20.10;99.90
2899;DHT22;1459;50.864;6.438;2022-07-21T15:09:04;20.10;99.90
2899;DHT22;1459;50.864;6.438;2022-07-21T15:11:31;20.00;99.90
2899;DHT22;1459;50.864;6.438;2022-07-21T15:13:58;20.10;99.90
2899;DHT22;1459;50.864;6.438;2022-07-21T15:16:25;20.20;99.90
2899;DHT22;1459;50.864;6.438;2022-07-21T15:18:53;20.20;99.90
2899;DHT22;1459;50.864;6.438;2022-07-21T15:21:20;20.20;99.90
2899;DHT22;1459;50.864;6.438;2022-07-21T15:23:47;20.20;99.90
2899;DHT22;1459;50.864;6.438;2022-07-21T15:26:16;20.10;99.90
2899;DHT22;1459;50.864;6.438;2022-07-21T15:28:43;20.10;99.90
2899;DHT22;1459;50.864;6.438;2022-07-21T15:31:12;20.20;99.90
2899;DHT22;1459;50.864;6.438;2022-07-21T15:33:39;20.30;99.90
2899;DHT22;1459;50.864;6.438;2022-07-21T15:36:08;20.40;99.90
2899;DHT22;1459;50.864;6.438;2022-07-21T15:38:35;20.40;99.90
2899;DHT22;1459;50.864;6.438;2022-07-21T15:41:02;20.40;99.90
2899;DHT22;1459;50.864;6.438;2022-07-21T15:43:30;20.40;99.90
2899;DHT22;1459;50.864;6.438;2022-07-21T15:45:57;20.30;99.90
2899;DHT22;1459;50.864;6.438;2022-07-21T15:48:24;20.20;99.90
2899;DHT22;1459;50.864;6.438;2022-07-21T15:50:51;20.20;99.90
2899;DHT22;1459;50.864;6.438;2022-07-21T15:53:20;20.20;99.90
2899;DHT22;1459;50.864;6.438;2022-07-21T15:55:47;20.30;99.90
2899;DHT22;1459;50.864;6.438;2022-07-21T15:58:14;20.30;99.90
2899;DHT22;1459;50.864;6.438;2022-07-21T16:00:41;20.30;99.90
2899;DHT22;1459;50.864;6.438;2022-07-21T16:03:08;20.20;99.90
2899;DHT22;1459;50.864;6.438;2022-07-21T16:05:35;20.20;99.90
2899;DHT22;1459;50.864;6.438;2022-07-21T16:08:02;20.20;99.90
2899;DHT22;1459;50.864;6.438;2022-07-21T16:10:30;20.10;99.90
2899;DHT22;1459;50.864;6.438;2022-07-21T16:12:57;20.10;99.90